PWSweather.com
Personal Weather Stations
Station Observations
ITORSHLL5
TorshällaSE

TorshällaSE

Lat: 59.41181946, Lon: 16.48669243

Elevation: 49

Station Type:

Latest ConditionsUpdated 8:19:00 AM GMT+01:01 Saturday, Apr 20, 2019
Currently Today's Max Today's Min Today's Average
Temperature 60.4°F15.8°C 60.4°F15.8°C 35.1°F1.7°C 41.9°F5.5°C
Dew Point 3.6°F-15.8°C 12.0°F-11.1°C -4.2°F-20.1°C 4.4°F-15.3°C
Winds 5.4 mph S8.7 kmh S 6.0 mph -9.7 kmh - - 2.0 mph 3.2 kmh
Wind Gusts 6.0 mph9.7 kmh 6.0 mph9.7 kmh - -
Humidity 10% 31% 10% 22%
Pressure 30.44 in1030.8 mb 30.49 in1032.5 mb 30.44 in1030.8 mb -
Hour Temp Dew Point Humidity Winds Wind Gusts Pressure Precip Precip Rate Daily Precip Total
08:19 AM 60.4°F15.8°C 3.6°F-15.8°C 10% 5.4 mph S8.7 kmh S 6.0 mph9.7 kmh 30.44 in1030.8 mb 0.00 in0.0 mm 0.00 in0.0 mm 0.00 in0.0 mm
08:14 AM 60.1°F15.6°C 3.4°F-15.9°C 10% 5.4 mph SW8.7 kmh SW 5.4 mph8.7 kmh 30.44 in1030.8 mb 0.00 in0.0 mm 0.00 in0.0 mm 0.00 in0.0 mm
08:09 AM 59.9°F15.5°C 3.2°F-16.0°C 10% 5.4 mph SW8.7 kmh SW 5.4 mph8.7 kmh 30.44 in1030.8 mb 0.00 in0.0 mm 0.00 in0.0 mm 0.00 in0.0 mm
08:04 AM 59.2°F15.1°C 2.7°F-16.3°C 10% 3.8 mph SE6.1 kmh SE 3.8 mph6.1 kmh 30.44 in1030.8 mb 0.00 in0.0 mm 0.00 in0.0 mm 0.00 in0.0 mm
07:59 AM 59.2°F15.1°C 2.7°F-16.3°C 10% 3.8 mph SE6.1 kmh SE 3.8 mph6.1 kmh 30.44 in1030.8 mb 0.00 in0.0 mm 0.00 in0.0 mm 0.00 in0.0 mm
07:54 AM 58.5°F14.7°C 2.1°F-16.6°C 10% 3.1 mph SW5.0 kmh SW 4.5 mph7.2 kmh 30.44 in1030.8 mb 0.00 in0.0 mm 0.00 in0.0 mm 0.00 in0.0 mm
07:49 AM 57.4°F14.1°C 1.3°F-17.1°C 10% 3.1 mph S5.0 kmh S 4.5 mph7.2 kmh 30.44 in1030.8 mb 0.00 in0.0 mm 0.00 in0.0 mm 0.00 in0.0 mm
07:44 AM 57.0°F13.9°C 1.0°F-17.2°C 10% 4.5 mph SE7.2 kmh SE 4.5 mph7.2 kmh 30.44 in1030.8 mb 0.00 in0.0 mm 0.00 in0.0 mm 0.00 in0.0 mm
07:39 AM 56.7°F13.7°C 0.7°F-17.4°C 10% 3.1 mph SW5.0 kmh SW 4.5 mph7.2 kmh 30.44 in1030.8 mb 0.00 in0.0 mm 0.00 in0.0 mm 0.00 in0.0 mm
07:34 AM 55.4°F13.0°C -0.2°F-17.9°C 10% 3.1 mph S5.0 kmh S 4.5 mph7.2 kmh 30.45 in1031.2 mb 0.00 in0.0 mm 0.00 in0.0 mm 0.00 in0.0 mm
07:29 AM 54.1°F12.3°C -1.2°F-18.4°C 10% 4.5 mph SW7.2 kmh SW 5.4 mph8.7 kmh 30.45 in1031.2 mb 0.00 in0.0 mm 0.00 in0.0 mm 0.00 in0.0 mm
07:24 AM 53.6°F12.0°C -1.6°F-18.7°C 10% 3.8 mph S6.1 kmh S 5.4 mph8.7 kmh 30.45 in1031.2 mb 0.00 in0.0 mm 0.00 in0.0 mm 0.00 in0.0 mm
07:19 AM 52.5°F11.4°C -2.4°F-19.1°C 10% 3.1 mph SE5.0 kmh SE 6.0 mph9.7 kmh 30.45 in1031.2 mb 0.00 in0.0 mm 0.00 in0.0 mm 0.00 in0.0 mm
07:14 AM 51.1°F10.6°C -3.6°F-19.8°C 10% 4.5 mph SW7.2 kmh SW 6.0 mph9.7 kmh 30.45 in1031.2 mb 0.00 in0.0 mm 0.00 in0.0 mm 0.00 in0.0 mm
07:09 AM 50.2°F10.1°C -4.2°F-20.1°C 10% 6.0 mph SW9.7 kmh SW 6.0 mph9.7 kmh 30.45 in1031.2 mb 0.00 in0.0 mm 0.00 in0.0 mm 0.00 in0.0 mm
07:04 AM 47.8°F8.8°C 2.5°F-16.4°C 15% 4.5 mph SW7.2 kmh SW 4.5 mph7.2 kmh 30.45 in1031.2 mb 0.00 in0.0 mm 0.00 in0.0 mm 0.00 in0.0 mm
06:59 AM 47.8°F8.8°C 2.5°F-16.4°C 15% 4.5 mph SW7.2 kmh SW 4.5 mph7.2 kmh 30.45 in1031.2 mb 0.00 in0.0 mm 0.00 in0.0 mm 0.00 in0.0 mm
06:54 AM 46.9°F8.3°C 5.7°F-14.6°C 18% 4.5 mph S7.2 kmh S 4.5 mph7.2 kmh 30.45 in1031.2 mb 0.00 in0.0 mm 0.00 in0.0 mm 0.00 in0.0 mm
06:49 AM 46.0°F7.8°C 8.3°F-13.2°C 21% 4.5 mph SSW7.2 kmh SSW 4.5 mph7.2 kmh 30.46 in1031.5 mb 0.00 in0.0 mm 0.00 in0.0 mm 0.00 in0.0 mm
06:44 AM 44.8°F7.1°C 9.3°F-12.6°C 23% 3.8 mph S6.1 kmh S 4.5 mph7.2 kmh 30.45 in1031.2 mb 0.00 in0.0 mm 0.00 in0.0 mm 0.00 in0.0 mm
06:39 AM 44.4°F6.9°C 9.9°F-12.3°C 24% 3.8 mph S6.1 kmh S 3.8 mph6.1 kmh 30.45 in1031.2 mb 0.00 in0.0 mm 0.00 in0.0 mm 0.00 in0.0 mm
06:34 AM 44.4°F6.9°C 9.0°F-12.8°C 23% 2.2 mph SE3.5 kmh SE 3.1 mph5.0 kmh 30.46 in1031.5 mb 0.00 in0.0 mm 0.00 in0.0 mm 0.00 in0.0 mm
06:29 AM 44.4°F6.9°C 8.0°F-13.3°C 22% 3.1 mph S5.0 kmh S 3.1 mph5.0 kmh 30.46 in1031.5 mb 0.00 in0.0 mm 0.00 in0.0 mm 0.00 in0.0 mm
06:24 AM 44.2°F6.8°C 6.8°F-14.0°C 21% 3.1 mph S5.0 kmh S 3.1 mph5.0 kmh 30.46 in1031.5 mb 0.00 in0.0 mm 0.00 in0.0 mm 0.00 in0.0 mm
06:19 AM 43.9°F6.6°C 6.5°F-14.2°C 21% 2.2 mph S3.5 kmh S 3.1 mph5.0 kmh 30.46 in1031.5 mb 0.00 in0.0 mm 0.00 in0.0 mm 0.00 in0.0 mm
06:14 AM 43.5°F6.4°C 6.2°F-14.3°C 21% 2.2 mph S3.5 kmh S 2.2 mph3.5 kmh 30.47 in1031.8 mb 0.00 in0.0 mm 0.00 in0.0 mm 0.00 in0.0 mm
06:09 AM 42.8°F6.0°C 5.6°F-14.7°C 21% 1.6 mph SE2.6 kmh SE 2.2 mph3.5 kmh 30.46 in1031.5 mb 0.00 in0.0 mm 0.00 in0.0 mm 0.00 in0.0 mm
06:04 AM 42.4°F5.8°C 4.2°F-15.4°C 20% 2.2 mph S3.5 kmh S 3.1 mph5.0 kmh 30.47 in1031.8 mb 0.00 in0.0 mm 0.00 in0.0 mm 0.00 in0.0 mm
05:59 AM 42.4°F5.8°C 4.2°F-15.4°C 20% 2.2 mph S3.5 kmh S 3.1 mph5.0 kmh 30.47 in1031.8 mb 0.00 in0.0 mm 0.00 in0.0 mm 0.00 in0.0 mm
05:54 AM 42.3°F5.7°C 3.0°F-16.1°C 19% 3.1 mph SE5.0 kmh SE 3.1 mph5.0 kmh 30.47 in1031.8 mb 0.00 in0.0 mm 0.00 in0.0 mm 0.00 in0.0 mm
05:49 AM 42.6°F5.9°C 3.3°F-15.9°C 19% 2.2 mph S3.5 kmh S 2.2 mph3.5 kmh 30.47 in1031.8 mb 0.00 in0.0 mm 0.00 in0.0 mm 0.00 in0.0 mm
05:44 AM 42.6°F5.9°C 4.4°F-15.3°C 20% 2.2 mph S3.5 kmh S 2.2 mph3.5 kmh 30.47 in1031.8 mb 0.00 in0.0 mm 0.00 in0.0 mm 0.00 in0.0 mm
05:39 AM 42.6°F5.9°C 6.5°F-14.2°C 22% 2.2 mph S3.5 kmh S 2.2 mph3.5 kmh 30.47 in1031.8 mb 0.00 in0.0 mm 0.00 in0.0 mm 0.00 in0.0 mm
05:34 AM 41.9°F5.5°C 12.0°F-11.1°C 29% Calm Calm 0.7 mph1.1 kmh 30.47 in1031.8 mb 0.00 in0.0 mm 0.00 in0.0 mm 0.00 in0.0 mm
05:29 AM 40.6°F4.8°C 11.7°F-11.3°C 30% Calm Calm 0.7 mph1.1 kmh 30.47 in1031.8 mb 0.00 in0.0 mm 0.00 in0.0 mm 0.00 in0.0 mm
05:24 AM 39.4°F4.1°C 10.6°F-11.9°C 30% Calm Calm 1.6 mph2.6 kmh 30.47 in1031.8 mb 0.00 in0.0 mm 0.00 in0.0 mm 0.00 in0.0 mm
05:19 AM 38.3°F3.5°C 10.3°F-12.1°C 31% 0.7 mph S1.1 kmh S 2.2 mph3.5 kmh 30.47 in1031.8 mb 0.00 in0.0 mm 0.00 in0.0 mm 0.00 in0.0 mm
05:14 AM 37.2°F2.9°C 9.4°F-12.6°C 31% 1.6 mph S2.6 kmh S 2.2 mph3.5 kmh 30.47 in1031.8 mb 0.00 in0.0 mm 0.00 in0.0 mm 0.00 in0.0 mm
05:09 AM 36.7°F2.6°C 8.9°F-12.8°C 31% 1.6 mph S2.6 kmh S 2.2 mph3.5 kmh 30.47 in1031.8 mb 0.00 in0.0 mm 0.00 in0.0 mm 0.00 in0.0 mm
05:04 AM 35.4°F1.9°C 7.8°F-13.4°C 31% 2.2 mph S3.5 kmh S 2.2 mph3.5 kmh 30.47 in1031.8 mb 0.00 in0.0 mm 0.00 in0.0 mm 0.00 in0.0 mm
04:59 AM 35.4°F1.9°C 7.8°F-13.4°C 31% 2.2 mph S3.5 kmh S 2.2 mph3.5 kmh 30.46 in1031.5 mb 0.00 in0.0 mm 0.00 in0.0 mm 0.00 in0.0 mm
04:54 AM 35.2°F1.8°C 7.7°F-13.5°C 31% 1.6 mph S2.6 kmh S 2.2 mph3.5 kmh 30.47 in1031.8 mb 0.00 in0.0 mm 0.00 in0.0 mm 0.00 in0.0 mm
04:49 AM 35.1°F1.7°C 6.8°F-14.0°C 30% Calm Calm 2.2 mph3.5 kmh 30.47 in1031.8 mb 0.00 in0.0 mm 0.00 in0.0 mm 0.00 in0.0 mm
04:44 AM 35.1°F1.7°C 6.8°F-14.0°C 30% 1.6 mph S2.6 kmh S 2.2 mph3.5 kmh 30.47 in1031.8 mb 0.00 in0.0 mm 0.00 in0.0 mm 0.00 in0.0 mm
04:39 AM 35.1°F1.7°C 6.1°F-14.4°C 29% 0.7 mph W1.1 kmh W 0.7 mph1.1 kmh 30.47 in1031.8 mb 0.00 in0.0 mm 0.00 in0.0 mm 0.00 in0.0 mm
04:34 AM 35.1°F1.7°C 6.1°F-14.4°C 29% Calm Calm 0.7 mph1.1 kmh 30.47 in1031.8 mb 0.00 in0.0 mm 0.00 in0.0 mm 0.00 in0.0 mm
04:29 AM 35.2°F1.8°C 6.2°F-14.3°C 29% Calm Calm 1.6 mph2.6 kmh 30.47 in1031.8 mb 0.00 in0.0 mm 0.00 in0.0 mm 0.00 in0.0 mm
04:24 AM 35.4°F1.9°C 6.4°F-14.2°C 29% Calm Calm 1.6 mph2.6 kmh 30.47 in1031.8 mb 0.00 in0.0 mm 0.00 in0.0 mm 0.00 in0.0 mm
04:19 AM 35.4°F1.9°C 7.1°F-13.8°C 30% 1.6 mph N2.6 kmh N 2.2 mph3.5 kmh 30.47 in1031.8 mb 0.00 in0.0 mm 0.00 in0.0 mm 0.00 in0.0 mm
04:14 AM 35.4°F1.9°C 7.1°F-13.8°C 30% 1.6 mph NE2.6 kmh NE 2.2 mph3.5 kmh 30.47 in1031.8 mb 0.00 in0.0 mm 0.00 in0.0 mm 0.00 in0.0 mm
04:09 AM 35.2°F1.8°C 7.7°F-13.5°C 31% 1.6 mph NE2.6 kmh NE 3.1 mph5.0 kmh 30.47 in1031.8 mb 0.00 in0.0 mm 0.00 in0.0 mm 0.00 in0.0 mm
04:04 AM 35.2°F1.8°C 7.0°F-13.9°C 30% 2.2 mph N3.5 kmh N 3.1 mph5.0 kmh 30.47 in1031.8 mb 0.00 in0.0 mm 0.00 in0.0 mm 0.00 in0.0 mm
03:59 AM 35.4°F1.9°C 7.1°F-13.8°C 30% 2.2 mph N3.5 kmh N 3.1 mph5.0 kmh 30.47 in1031.8 mb 0.00 in0.0 mm 0.00 in0.0 mm 0.00 in0.0 mm
03:54 AM 35.4°F1.9°C 7.1°F-13.8°C 30% 0.7 mph N1.1 kmh N 2.2 mph3.5 kmh 30.47 in1031.8 mb 0.00 in0.0 mm 0.00 in0.0 mm 0.00 in0.0 mm
03:49 AM 35.6°F2.0°C 7.3°F-13.7°C 30% 1.6 mph N2.6 kmh N 3.1 mph5.0 kmh 30.47 in1031.8 mb 0.00 in0.0 mm 0.00 in0.0 mm 0.00 in0.0 mm
03:44 AM 35.6°F2.0°C 8.0°F-13.3°C 31% 0.7 mph NE1.1 kmh NE 6.0 mph9.7 kmh 30.47 in1031.8 mb 0.00 in0.0 mm 0.00 in0.0 mm 0.00 in0.0 mm
03:39 AM 35.6°F2.0°C 7.3°F-13.7°C 30% 3.1 mph NE5.0 kmh NE 6.0 mph9.7 kmh 30.47 in1031.8 mb 0.00 in0.0 mm 0.00 in0.0 mm 0.00 in0.0 mm
03:34 AM 36.3°F2.4°C 7.1°F-13.8°C 29% 6.0 mph NE9.7 kmh NE 6.0 mph9.7 kmh 30.47 in1031.8 mb 0.00 in0.0 mm 0.00 in0.0 mm 0.00 in0.0 mm
03:29 AM 37.0°F2.8°C 7.0°F-13.9°C 28% 2.2 mph NE3.5 kmh NE 2.2 mph3.5 kmh 30.46 in1031.5 mb 0.00 in0.0 mm 0.00 in0.0 mm 0.00 in0.0 mm
03:24 AM 36.9°F2.7°C 7.6°F-13.6°C 29% Calm Calm 2.2 mph3.5 kmh 30.46 in1031.5 mb 0.00 in0.0 mm 0.00 in0.0 mm 0.00 in0.0 mm
03:19 AM 37.0°F2.8°C 7.8°F-13.4°C 29% Calm Calm 3.1 mph5.0 kmh 30.47 in1031.8 mb 0.00 in0.0 mm 0.00 in0.0 mm 0.00 in0.0 mm
03:14 AM 36.5°F2.5°C 7.3°F-13.7°C 29% 2.2 mph S3.5 kmh S 3.1 mph5.0 kmh 30.47 in1031.8 mb 0.00 in0.0 mm 0.00 in0.0 mm 0.00 in0.0 mm
03:09 AM 36.7°F2.6°C 6.7°F-14.1°C 28% 1.6 mph SE2.6 kmh SE 1.6 mph2.6 kmh 30.47 in1031.8 mb 0.00 in0.0 mm 0.00 in0.0 mm 0.00 in0.0 mm
03:04 AM 37.0°F2.8°C 5.4°F-14.8°C 26% 1.6 mph S2.6 kmh S 1.6 mph2.6 kmh 30.47 in1031.8 mb 0.00 in0.0 mm 0.00 in0.0 mm 0.00 in0.0 mm
02:59 AM 37.0°F2.8°C 5.4°F-14.8°C 26% 0.7 mph S1.1 kmh S 1.6 mph2.6 kmh 30.48 in1032.2 mb 0.00 in0.0 mm 0.00 in0.0 mm 0.00 in0.0 mm
02:54 AM 37.4°F3.0°C 5.7°F-14.6°C 26% Calm Calm 3.1 mph5.0 kmh 30.47 in1031.8 mb 0.00 in0.0 mm 0.00 in0.0 mm 0.00 in0.0 mm
02:49 AM 37.8°F3.2°C 6.8°F-14.0°C 27% 1.6 mph S2.6 kmh S 3.1 mph5.0 kmh 30.47 in1031.8 mb 0.00 in0.0 mm 0.00 in0.0 mm 0.00 in0.0 mm
02:44 AM 37.8°F3.2°C 6.8°F-14.0°C 27% 3.1 mph S5.0 kmh S 3.1 mph5.0 kmh 30.47 in1031.8 mb 0.00 in0.0 mm 0.00 in0.0 mm 0.00 in0.0 mm
02:39 AM 37.6°F3.1°C 5.8°F-14.6°C 26% 3.1 mph S5.0 kmh S 3.1 mph5.0 kmh 30.47 in1031.8 mb 0.00 in0.0 mm 0.00 in0.0 mm 0.00 in0.0 mm
02:34 AM 37.6°F3.1°C 5.8°F-14.6°C 26% 2.2 mph S3.5 kmh S 2.2 mph3.5 kmh 30.48 in1032.2 mb 0.00 in0.0 mm 0.00 in0.0 mm 0.00 in0.0 mm
02:29 AM 37.6°F3.1°C 5.0°F-15.0°C 25% 2.2 mph S3.5 kmh S 2.2 mph3.5 kmh 30.47 in1031.8 mb 0.00 in0.0 mm 0.00 in0.0 mm 0.00 in0.0 mm
02:24 AM 37.9°F3.3°C 3.5°F-15.8°C 23% 0.7 mph S1.1 kmh S 0.7 mph1.1 kmh 30.48 in1032.2 mb 0.00 in0.0 mm 0.00 in0.0 mm 0.00 in0.0 mm
02:19 AM 37.8°F3.2°C 3.3°F-15.9°C 23% Calm Calm -- 30.48 in1032.2 mb 0.00 in0.0 mm 0.00 in0.0 mm 0.00 in0.0 mm
02:14 AM 38.1°F3.4°C 2.7°F-16.3°C 22% Calm Calm 1.6 mph2.6 kmh 30.48 in1032.2 mb 0.00 in0.0 mm 0.00 in0.0 mm 0.00 in0.0 mm
02:09 AM 38.7°F3.7°C 3.1°F-16.1°C 22% Calm Calm 1.6 mph2.6 kmh 30.48 in1032.2 mb 0.00 in0.0 mm 0.00 in0.0 mm 0.00 in0.0 mm
02:04 AM 38.8°F3.8°C 5.2°F-14.9°C 24% 1.6 mph S2.6 kmh S 2.2 mph3.5 kmh 30.48 in1032.2 mb 0.00 in0.0 mm 0.00 in0.0 mm 0.00 in0.0 mm
01:59 AM 38.8°F3.8°C 5.2°F-14.9°C 24% 1.6 mph S2.6 kmh S 3.1 mph5.0 kmh 30.48 in1032.2 mb 0.00 in0.0 mm 0.00 in0.0 mm 0.00 in0.0 mm
01:54 AM 38.8°F3.8°C 6.1°F-14.4°C 25% 2.2 mph S3.5 kmh S 3.8 mph6.1 kmh 30.48 in1032.2 mb 0.00 in0.0 mm 0.00 in0.0 mm 0.00 in0.0 mm
01:49 AM 39.0°F3.9°C 5.3°F-14.8°C 24% 3.1 mph S5.0 kmh S 3.8 mph6.1 kmh 30.48 in1032.2 mb 0.00 in0.0 mm 0.00 in0.0 mm 0.00 in0.0 mm
01:44 AM 39.0°F3.9°C 4.4°F-15.3°C 23% 3.1 mph S5.0 kmh S 3.1 mph5.0 kmh 30.48 in1032.2 mb 0.00 in0.0 mm 0.00 in0.0 mm 0.00 in0.0 mm
01:39 AM 39.4°F4.1°C 2.7°F-16.3°C 21% 1.6 mph S2.6 kmh S 1.6 mph2.6 kmh 30.48 in1032.2 mb 0.00 in0.0 mm 0.00 in0.0 mm 0.00 in0.0 mm
01:34 AM 39.9°F4.4°C 2.1°F-16.6°C 20% 1.6 mph SW2.6 kmh SW 1.6 mph2.6 kmh 30.48 in1032.2 mb 0.00 in0.0 mm 0.00 in0.0 mm 0.00 in0.0 mm
01:29 AM 40.1°F4.5°C 2.3°F-16.5°C 20% 1.6 mph SW2.6 kmh SW 1.6 mph2.6 kmh 30.48 in1032.2 mb 0.00 in0.0 mm 0.00 in0.0 mm 0.00 in0.0 mm
01:24 AM 40.3°F4.6°C 1.3°F-17.1°C 19% 0.7 mph W1.1 kmh W 2.2 mph3.5 kmh 30.48 in1032.2 mb 0.00 in0.0 mm 0.00 in0.0 mm 0.00 in0.0 mm
01:19 AM 40.6°F4.8°C 1.6°F-16.9°C 19% Calm Calm 2.2 mph3.5 kmh 30.49 in1032.5 mb 0.00 in0.0 mm 0.00 in0.0 mm 0.00 in0.0 mm
01:14 AM 40.5°F4.7°C 2.6°F-16.3°C 20% 2.2 mph NW3.5 kmh NW 2.2 mph3.5 kmh 30.49 in1032.5 mb 0.00 in0.0 mm 0.00 in0.0 mm 0.00 in0.0 mm
01:09 AM 39.9°F4.4°C 2.1°F-16.6°C 20% Calm Calm 0.7 mph1.1 kmh 30.48 in1032.2 mb 0.00 in0.0 mm 0.00 in0.0 mm 0.00 in0.0 mm
01:04 AM 39.9°F4.4°C 1.0°F-17.2°C 19% Calm Calm 0.7 mph1.1 kmh 30.49 in1032.5 mb 0.00 in0.0 mm 0.00 in0.0 mm 0.00 in0.0 mm
12:59 AM 39.9°F4.4°C -0.1°F-17.8°C 18% 0.7 mph N1.1 kmh N 0.7 mph1.1 kmh 30.49 in1032.5 mb 0.00 in0.0 mm 0.00 in0.0 mm 0.00 in0.0 mm
12:54 AM 40.3°F4.6°C 1.3°F-17.1°C 19% Calm Calm 0.7 mph1.1 kmh 30.48 in1032.2 mb 0.00 in0.0 mm 0.00 in0.0 mm 0.00 in0.0 mm
12:49 AM 40.5°F4.7°C 1.5°F-16.9°C 19% Calm Calm 1.6 mph2.6 kmh 30.49 in1032.5 mb 0.00 in0.0 mm 0.00 in0.0 mm 0.00 in0.0 mm
12:44 AM 40.5°F4.7°C 0.3°F-17.6°C 18% Calm Calm 1.6 mph2.6 kmh 30.49 in1032.5 mb 0.00 in0.0 mm 0.00 in0.0 mm 0.00 in0.0 mm
12:39 AM 40.8°F4.9°C 1.8°F-16.8°C 19% 0.7 mph S1.1 kmh S 1.6 mph2.6 kmh 30.49 in1032.5 mb 0.00 in0.0 mm 0.00 in0.0 mm 0.00 in0.0 mm
12:34 AM 41.0°F5.0°C -0.4°F-18.0°C 17% 0.7 mph S1.1 kmh S 0.7 mph1.1 kmh 30.49 in1032.5 mb 0.00 in0.0 mm 0.00 in0.0 mm 0.00 in0.0 mm
12:29 AM 41.2°F5.1°C -1.6°F-18.7°C 16% Calm Calm 1.6 mph2.6 kmh 30.49 in1032.5 mb 0.00 in0.0 mm 0.00 in0.0 mm 0.00 in0.0 mm
12:24 AM 41.5°F5.3°C 0.0°F-17.8°C 17% 0.7 mph S1.1 kmh S 1.6 mph2.6 kmh 30.49 in1032.5 mb 0.00 in0.0 mm 0.00 in0.0 mm 0.00 in0.0 mm
12:19 AM 41.7°F5.4°C -1.1°F-18.4°C 16% 1.6 mph S2.6 kmh S 1.6 mph2.6 kmh 30.49 in1032.5 mb 0.00 in0.0 mm 0.00 in0.0 mm 0.00 in0.0 mm
12:14 AM 42.1°F5.6°C -3.6°F-19.8°C 14% 0.7 mph N1.1 kmh N 1.6 mph2.6 kmh 30.49 in1032.5 mb 0.00 in0.0 mm 0.00 in0.0 mm 0.00 in0.0 mm
12:09 AM 42.4°F5.8°C -3.3°F-19.6°C 14% Calm Calm 1.6 mph2.6 kmh 30.49 in1032.5 mb 0.00 in0.0 mm 0.00 in0.0 mm 0.00 in0.0 mm
12:04 AM 43.2°F6.2°C -1.3°F-18.5°C 15% 1.6 mph SW2.6 kmh SW 2.2 mph3.5 kmh 30.49 in1032.5 mb 0.00 in0.0 mm 0.00 in0.0 mm 0.00 in0.0 mm